createdAt,value
2017-11-03T00:02:22.991Z,65.10
2017-11-03T00:04:49.168Z,65.10
2017-11-03T00:07:15.515Z,65.20
2017-11-03T00:09:41.727Z,66.10
2017-11-03T00:12:07.954Z,65.80
2017-11-03T00:14:34.179Z,65.70
2017-11-03T00:17:00.514Z,65.70
2017-11-03T00:19:27.525Z,65.50
2017-11-03T00:21:53.769Z,65.40
2017-11-03T00:24:20.311Z,66.00
2017-11-03T00:26:46.541Z,66.30
2017-11-03T00:29:12.773Z,66.10
2017-11-03T00:31:39.077Z,66.30
2017-11-03T00:34:06.110Z,66.40
2017-11-03T00:36:32.381Z,66.40
2017-11-03T00:38:58.752Z,66.80
2017-11-03T00:41:25.210Z,66.90
2017-11-03T00:43:52.258Z,67.20
2017-11-03T00:46:18.477Z,67.30
2017-11-03T00:48:44.685Z,67.30
2017-11-03T00:51:10.978Z,66.80
2017-11-03T00:53:37.362Z,66.60
2017-11-03T00:56:03.595Z,66.50
2017-11-03T00:58:29.829Z,66.60
2017-11-03T01:00:56.153Z,66.80
2017-11-03T01:03:22.385Z,67.30
2017-11-03T01:05:48.613Z,67.30
2017-11-03T01:08:14.855Z,67.30
2017-11-03T01:10:42.035Z,67.50
2017-11-03T01:13:08.301Z,67.50
2017-11-03T01:15:34.655Z,67.70
2017-11-03T01:18:00.865Z,67.60
2017-11-03T01:20:27.092Z,67.70
2017-11-03T01:22:53.433Z,68.30
2017-11-03T01:25:19.713Z,68.20
2017-11-03T01:27:46.002Z,68.30
2017-11-03T01:30:12.256Z,68.40
2017-11-03T01:32:38.831Z,68.00
2017-11-03T01:35:05.092Z,68.10
2017-11-03T01:37:31.368Z,68.00
2017-11-03T01:39:57.726Z,67.80
2017-11-03T01:42:24.116Z,68.10
2017-11-03T01:44:50.371Z,68.50
2017-11-03T01:47:16.782Z,68.30
2017-11-03T01:49:43.102Z,68.10
2017-11-03T01:52:09.388Z,68.30
2017-11-03T01:54:35.709Z,68.60
2017-11-03T01:57:02.013Z,68.90
2017-11-03T01:59:28.303Z,68.60
2017-11-03T02:01:54.604Z,68.70
2017-11-03T02:04:20.929Z,69.10
2017-11-03T02:06:47.191Z,68.90
2017-11-03T02:09:13.445Z,69.00
2017-11-03T02:11:39.755Z,69.30
2017-11-03T02:14:06.017Z,69.20
2017-11-03T02:16:33.049Z,69.50
2017-11-03T02:18:59.309Z,69.40
2017-11-03T02:21:25.684Z,69.00
2017-11-03T02:23:52.723Z,69.00
2017-11-03T02:26:19.029Z,69.00
2017-11-03T02:28:46.085Z,69.00
2017-11-03T02:31:12.360Z,69.00
2017-11-03T02:33:38.660Z,68.90
2017-11-03T02:36:04.902Z,69.00
2017-11-03T02:38:31.972Z,69.20
2017-11-03T02:40:58.229Z,69.20
2017-11-03T02:43:24.513Z,69.50
2017-11-03T02:45:51.805Z,69.30
2017-11-03T02:48:18.119Z,69.30
2017-11-03T02:50:44.372Z,68.90
2017-11-03T02:53:10.748Z,68.80
2017-11-03T02:55:37.746Z,68.40
2017-11-03T02:58:04.002Z,68.50
2017-11-03T03:00:30.411Z,68.80
2017-11-03T03:02:56.673Z,68.60
2017-11-03T03:05:22.933Z,68.20
2017-11-03T03:07:49.218Z,68.20
2017-11-03T03:10:15.559Z,68.10
2017-11-03T03:12:41.818Z,67.90
2017-11-03T03:15:08.139Z,68.20
2017-11-03T03:17:34.433Z,67.80
2017-11-03T03:20:00.713Z,67.50
2017-11-03T03:22:27.032Z,67.50
2017-11-03T03:24:53.372Z,67.80
2017-11-03T03:27:20.367Z,67.80
2017-11-03T03:29:46.729Z,67.80
2017-11-03T03:32:13.029Z,67.80
2017-11-03T03:34:39.363Z,68.20
2017-11-03T03:37:05.627Z,68.30
2017-11-03T03:39:31.899Z,68.00
2017-11-03T03:41:58.246Z,67.70
2017-11-03T03:44:24.577Z,67.70
2017-11-03T03:46:50.850Z,68.60
2017-11-03T03:49:17.155Z,67.90
2017-11-03T03:51:43.433Z,67.80
2017-11-03T03:54:09.709Z,67.90
2017-11-03T03:56:35.989Z,68.30
2017-11-03T03:59:03.075Z,68.30
2017-11-03T04:01:29.363Z,68.30
2017-11-03T04:03:55.631Z,68.40
2017-11-03T04:06:22.726Z,68.30
2017-11-03T04:08:49.025Z,68.20
2017-11-03T04:11:15.328Z,68.20
2017-11-03T04:13:41.660Z,68.30
2017-11-03T04:16:07.906Z,68.20
2017-11-03T04:18:34.404Z,67.90
2017-11-03T04:21:00.670Z,68.30
2017-11-03T04:23:27.681Z,68.20
2017-11-03T04:25:53.947Z,68.30
2017-11-03T04:28:20.356Z,68.60
2017-11-03T04:30:46.609Z,69.10
2017-11-03T04:33:12.888Z,68.80
2017-11-03T04:35:39.261Z,68.70
2017-11-03T04:38:05.675Z,68.80
2017-11-03T04:40:32.007Z,68.90
2017-11-03T04:42:59.068Z,69.40
2017-11-03T04:45:25.365Z,69.40
2017-11-03T04:47:51.690Z,69.40
2017-11-03T04:50:17.965Z,69.80
2017-11-03T04:52:44.268Z,69.70
2017-11-03T04:55:10.629Z,69.50
2017-11-03T04:57:36.896Z,69.60
2017-11-03T05:00:04.014Z,69.70
2017-11-03T05:02:30.305Z,69.80
2017-11-03T05:04:56.571Z,69.80
2017-11-03T05:07:22.884Z,70.00
2017-11-03T05:09:49.238Z,70.10
2017-11-03T05:12:16.261Z,70.40
2017-11-03T05:14:43.313Z,70.50
2017-11-03T05:17:09.750Z,70.50
2017-11-03T05:19:35.998Z,70.60
2017-11-03T05:22:02.343Z,70.10
2017-11-03T05:24:29.373Z,71.00
2017-11-03T05:26:55.702Z,70.20
2017-11-03T05:29:22.020Z,70.20
2017-11-03T05:31:48.318Z,70.40
2017-11-03T05:34:14.562Z,70.70
2017-11-03T05:36:40.854Z,70.50
2017-11-03T05:39:07.142Z,70.60
2017-11-03T05:41:33.475Z,70.60
2017-11-03T05:44:00.595Z,70.30
2017-11-03T05:46:26.925Z,70.30
2017-11-03T05:48:53.205Z,70.50
2017-11-03T05:51:19.511Z,70.50
2017-11-03T05:53:45.823Z,70.90
2017-11-03T05:56:12.149Z,71.00
2017-11-03T05:58:38.391Z,71.00
2017-11-03T06:01:04.682Z,71.00
2017-11-03T06:03:30.971Z,71.00
2017-11-03T06:05:57.235Z,70.90
2017-11-03T06:08:23.527Z,70.60
2017-11-03T06:10:49.889Z,70.30
2017-11-03T06:13:16.139Z,70.30
2017-11-03T06:15:42.382Z,70.30
2017-11-03T06:18:08.766Z,70.30
2017-11-03T06:20:35.006Z,70.50
2017-11-03T06:23:01.257Z,70.80
2017-11-03T06:25:28.247Z,70.70
2017-11-03T06:27:54.501Z,70.70
2017-11-03T06:30:21.734Z,70.60
2017-11-03T06:32:48.255Z,70.40
2017-11-03T06:35:14.526Z,70.40
2017-11-03T06:37:41.806Z,70.80
2017-11-03T06:40:08.070Z,70.30
2017-11-03T06:42:34.351Z,70.10
2017-11-03T06:45:01.384Z,70.30
2017-11-03T06:47:28.375Z,70.70
2017-11-03T06:49:54.674Z,70.60
2017-11-03T06:52:21.029Z,71.50
2017-11-03T06:54:47.288Z,70.60
2017-11-03T06:57:13.626Z,69.70
2017-11-03T06:59:40.090Z,69.40
2017-11-03T07:02:07.077Z,68.80
2017-11-03T07:04:33.348Z,68.80
2017-11-03T07:06:59.705Z,68.30
2017-11-03T07:09:25.922Z,68.60
2017-11-03T07:11:52.162Z,68.50
2017-11-03T07:14:18.455Z,68.70
2017-11-03T07:16:44.721Z,68.60
2017-11-03T07:19:11.305Z,68.90
2017-11-03T07:21:37.574Z,68.90
2017-11-03T07:24:03.862Z,69.10
2017-11-03T07:26:30.105Z,68.70
2017-11-03T07:28:56.338Z,68.50
2017-11-03T07:31:23.730Z,68.30
2017-11-03T07:33:50.133Z,67.70
2017-11-03T07:36:16.384Z,67.50
2017-11-03T07:38:42.656Z,67.50
2017-11-03T07:41:08.923Z,67.60
2017-11-03T07:43:35.192Z,67.40
2017-11-03T07:46:01.519Z,67.60
2017-11-03T07:48:28.459Z,67.70
2017-11-03T07:50:54.706Z,67.60
2017-11-03T07:53:21.034Z,67.70
2017-11-03T07:55:47.445Z,67.30
2017-11-03T07:58:13.723Z,67.40
2017-11-03T08:00:40.053Z,67.10
2017-11-03T08:03:06.505Z,66.90
2017-11-03T08:05:32.744Z,66.80
2017-11-03T08:07:59.004Z,66.80
2017-11-03T08:10:25.390Z,66.50
2017-11-03T08:12:52.336Z,66.40
2017-11-03T08:15:18.581Z,66.50
2017-11-03T08:17:44.840Z,66.40
2017-11-03T08:20:11.108Z,66.30
2017-11-03T08:22:37.337Z,66.20
2017-11-03T08:25:03.591Z,66.00
2017-11-03T08:27:30.562Z,65.80
2017-11-03T08:29:56.796Z,65.80
2017-11-03T08:32:23.319Z,65.10
2017-11-03T08:34:50.942Z,65.40
2017-11-03T08:37:17.220Z,65.40
2017-11-03T08:39:44.184Z,65.60
2017-11-03T08:42:10.527Z,65.50
2017-11-03T08:44:37.243Z,65.00
2017-11-03T08:47:03.549Z,65.20
2017-11-03T08:49:29.819Z,64.80
2017-11-03T08:51:56.164Z,65.00
2017-11-03T08:54:22.399Z,64.80
2017-11-03T08:56:48.837Z,64.60
2017-11-03T08:59:15.118Z,64.20
2017-11-03T09:01:41.534Z,64.70
2017-11-03T09:04:07.736Z,64.10
2017-11-03T09:06:34.013Z,63.70
2017-11-03T09:09:00.299Z,63.70
2017-11-03T09:11:26.525Z,63.70
2017-11-03T09:13:52.744Z,62.70
2017-11-03T09:16:19.276Z,62.70
2017-11-03T09:18:46.250Z,62.40
2017-11-03T09:21:12.707Z,62.50
2017-11-03T09:23:39.803Z,62.10
2017-11-03T09:26:06.047Z,62.10
2017-11-03T09:28:32.398Z,62.00
2017-11-03T09:30:58.623Z,61.00
2017-11-03T09:33:25.633Z,61.00
2017-11-03T09:35:51.855Z,61.00
2017-11-03T09:38:18.186Z,60.40
2017-11-03T09:40:44.420Z,60.00
2017-11-03T09:43:10.802Z,59.90
2017-11-03T09:45:37.196Z,59.90
2017-11-03T09:48:03.475Z,60.00
2017-11-03T09:50:29.705Z,60.00
2017-11-03T09:52:56.090Z,59.50
2017-11-03T09:55:22.423Z,59.50
2017-11-03T09:57:48.938Z,59.10
2017-11-03T10:00:15.246Z,59.20
2017-11-03T10:02:41.773Z,59.10
2017-11-03T10:05:08.001Z,58.70
2017-11-03T10:07:34.294Z,58.80
2017-11-03T10:10:00.643Z,58.50
2017-11-03T10:12:26.884Z,58.40
2017-11-03T10:14:53.151Z,57.80
2017-11-03T10:17:20.173Z,57.60
2017-11-03T10:19:46.373Z,57.20
2017-11-03T10:22:12.618Z,56.10
2017-11-03T10:24:39.029Z,56.80
2017-11-03T10:27:05.278Z,56.90
2017-11-03T10:29:31.596Z,56.50
2017-11-03T10:31:58.926Z,56.50
2017-11-03T10:34:25.155Z,55.90
2017-11-03T10:36:52.493Z,56.50
2017-11-03T10:39:18.778Z,55.30
2017-11-03T10:41:44.998Z,54.60
2017-11-03T10:44:11.349Z,54.80
2017-11-03T10:46:37.730Z,54.90
2017-11-03T10:49:03.929Z,53.90
2017-11-03T10:51:30.219Z,53.30
2017-11-03T10:53:57.254Z,52.70
2017-11-03T10:56:24.709Z,52.70
2017-11-03T10:58:51.065Z,52.20
2017-11-03T11:01:17.370Z,52.40
2017-11-03T11:03:43.706Z,52.40
2017-11-03T11:06:10.055Z,51.70
2017-11-03T11:08:37.004Z,51.10
2017-11-03T11:11:03.539Z,51.10
2017-11-03T11:13:29.840Z,51.40
2017-11-03T11:15:56.198Z,50.10
2017-11-03T11:18:22.442Z,50.00
2017-11-03T11:20:48.757Z,49.90
2017-11-03T11:23:15.301Z,50.20
2017-11-03T11:25:41.753Z,49.90
2017-11-03T11:28:08.062Z,49.70
2017-11-03T11:30:34.351Z,49.70
2017-11-03T11:33:00.538Z,48.50
2017-11-03T11:35:27.049Z,47.40
2017-11-03T11:37:53.297Z,47.50
2017-11-03T11:40:19.526Z,45.50
2017-11-03T11:42:45.945Z,45.10
2017-11-03T11:45:12.243Z,44.30
2017-11-03T11:47:38.516Z,43.80
2017-11-03T11:50:04.814Z,42.20
2017-11-03T11:52:31.125Z,41.10
2017-11-03T11:54:57.401Z,40.90
2017-11-03T11:57:23.771Z,41.00
2017-11-03T11:59:50.112Z,39.00
2017-11-03T12:02:16.386Z,40.10
2017-11-03T12:04:42.657Z,39.10
2017-11-03T12:07:09.191Z,38.70
2017-11-03T12:09:35.493Z,37.80
2017-11-03T12:12:01.853Z,38.50
2017-11-03T12:14:28.096Z,38.20
2017-11-03T12:16:54.384Z,38.10
2017-11-03T12:19:20.701Z,38.20
2017-11-03T12:21:46.965Z,38.80
2017-11-03T12:24:13.435Z,38.40
2017-11-03T12:26:41.180Z,38.20
2017-11-03T12:29:07.605Z,37.90
2017-11-03T12:39:09.776Z,39.20
2017-11-03T12:41:36.050Z,39.20
2017-11-03T12:44:02.329Z,38.80
2017-11-03T12:46:28.621Z,40.50
2017-11-03T12:48:54.859Z,39.60
2017-11-03T12:51:21.860Z,40.10
2017-11-03T12:53:49.918Z,40.70
2017-11-03T12:56:16.195Z,40.70
2017-11-03T12:58:42.489Z,41.10
2017-11-03T13:01:08.759Z,41.70
2017-11-03T13:03:35.048Z,42.00
2017-11-03T13:06:01.357Z,42.10
2017-11-03T13:08:27.556Z,43.00
2017-11-03T13:10:53.836Z,43.20
2017-11-03T13:13:20.096Z,43.80
2017-11-03T13:15:47.247Z,43.60
2017-11-03T13:18:13.644Z,43.60
2017-11-03T13:20:39.976Z,44.40
2017-11-03T13:23:06.230Z,44.50
2017-11-03T13:25:32.535Z,44.70
2017-11-03T13:27:58.851Z,44.10
2017-11-03T13:30:25.105Z,43.90
2017-11-03T13:32:52.240Z,43.80
2017-11-03T13:35:18.639Z,44.40
2017-11-03T13:37:44.891Z,45.10
2017-11-03T13:40:11.141Z,44.80
2017-11-03T13:42:37.481Z,44.10
2017-11-03T13:45:04.465Z,44.60
2017-11-03T13:47:30.768Z,44.50
2017-11-03T13:49:58.005Z,45.10
2017-11-03T13:52:24.407Z,44.80
2017-11-03T13:54:50.678Z,45.10
2017-11-03T13:57:16.981Z,45.90
2017-11-03T13:59:43.216Z,46.20
2017-11-03T14:02:09.519Z,45.20
2017-11-03T14:04:35.793Z,45.00
2017-11-03T14:07:02.044Z,45.10
2017-11-03T14:09:28.349Z,45.10
2017-11-03T14:11:54.610Z,45.00
2017-11-03T14:14:20.967Z,44.80
2017-11-03T14:16:47.187Z,45.30
2017-11-03T14:19:13.446Z,45.10
2017-11-03T14:21:39.792Z,45.60
2017-11-03T14:24:06.224Z,45.90
2017-11-03T14:26:32.436Z,45.90
2017-11-03T14:28:58.677Z,46.40
2017-11-03T14:31:24.981Z,46.40
2017-11-03T14:33:51.185Z,46.40
2017-11-03T14:36:17.367Z,46.50
2017-11-03T14:38:43.556Z,46.50
2017-11-03T14:41:09.851Z,46.50
2017-11-03T14:43:36.051Z,46.30
2017-11-03T14:46:02.331Z,46.50
2017-11-03T14:48:28.602Z,46.00
2017-11-03T14:50:54.885Z,46.30
2017-11-03T14:53:21.093Z,46.80
2017-11-03T14:55:47.406Z,46.70
2017-11-03T14:58:13.625Z,46.50
2017-11-03T15:00:39.858Z,47.00
2017-11-03T15:03:06.304Z,47.20
2017-11-03T15:05:33.549Z,47.00
2017-11-03T15:08:00.499Z,46.90
2017-11-03T15:10:26.789Z,46.90
2017-11-03T15:12:53.076Z,47.90
2017-11-03T15:15:19.305Z,48.30
2017-11-03T15:17:46.222Z,49.20
2017-11-03T15:20:13.319Z,48.40
2017-11-03T15:22:39.711Z,48.40
2017-11-03T15:25:06.061Z,49.20
2017-11-03T15:27:32.288Z,49.70
2017-11-03T15:29:58.518Z,50.30
2017-11-03T15:32:24.816Z,51.10
2017-11-03T15:34:51.203Z,51.60
2017-11-03T15:37:17.519Z,51.20
2017-11-03T15:39:44.040Z,50.90
2017-11-03T15:42:11.074Z,51.50
2017-11-03T15:44:37.485Z,51.50
2017-11-03T15:47:03.864Z,51.70
2017-11-03T15:49:30.846Z,51.80
2017-11-03T15:51:57.190Z,51.70
2017-11-03T15:54:23.477Z,52.50
2017-11-03T15:56:49.721Z,53.20
2017-11-03T15:59:16.005Z,53.40
2017-11-03T16:01:42.427Z,53.50
2017-11-03T16:04:08.659Z,54.40
2017-11-03T16:06:34.899Z,54.30
2017-11-03T16:09:02.148Z,54.20
2017-11-03T16:11:28.378Z,54.20
2017-11-03T16:13:54.720Z,55.00
2017-11-03T16:16:21.109Z,55.00
2017-11-03T16:18:47.353Z,55.50
2017-11-03T16:21:13.608Z,55.40
2017-11-03T16:23:40.535Z,55.80
2017-11-03T16:26:06.794Z,56.00
2017-11-03T16:28:33.025Z,56.30
2017-11-03T16:30:59.255Z,56.40
2017-11-03T16:33:25.536Z,56.90
2017-11-03T16:35:51.781Z,57.30
2017-11-03T16:38:17.995Z,57.50
2017-11-03T16:40:44.311Z,57.60
2017-11-03T16:43:10.581Z,58.60
2017-11-03T16:45:37.560Z,58.00
2017-11-03T16:48:03.841Z,58.00
2017-11-03T16:50:30.177Z,58.00
2017-11-03T16:52:56.393Z,58.20
2017-11-03T16:55:22.938Z,58.30
2017-11-03T16:57:49.350Z,58.40
2017-11-03T17:00:18.345Z,59.70
2017-11-03T17:02:44.640Z,59.70
2017-11-03T17:05:10.904Z,59.70
2017-11-03T17:07:37.179Z,60.00
2017-11-03T17:10:03.398Z,60.10
2017-11-03T17:12:30.579Z,60.40
2017-11-03T17:14:56.839Z,60.40
2017-11-03T17:17:23.085Z,60.40
2017-11-03T17:19:50.085Z,60.50
2017-11-03T17:22:16.353Z,60.50
2017-11-03T17:24:42.563Z,60.70
2017-11-03T17:27:08.843Z,60.60
2017-11-03T17:29:35.193Z,61.20
2017-11-03T17:32:03.053Z,60.40
2017-11-03T17:34:29.268Z,61.10
2017-11-03T17:36:55.476Z,61.30
2017-11-03T17:39:21.855Z,61.80
2017-11-03T17:41:48.105Z,62.00
2017-11-03T17:44:14.357Z,62.00
2017-11-03T17:46:40.677Z,62.00
2017-11-03T17:49:07.129Z,62.00
2017-11-03T17:51:33.449Z,62.40
2017-11-03T17:54:00.504Z,62.50
2017-11-03T17:56:26.718Z,62.40
2017-11-03T17:58:52.991Z,62.40
2017-11-03T18:01:19.274Z,62.80
2017-11-03T18:03:45.546Z,62.80
2017-11-03T18:06:11.861Z,62.80
2017-11-03T18:08:38.132Z,62.70
2017-11-03T18:11:04.477Z,62.70
2017-11-03T18:13:30.728Z,62.70
2017-11-03T18:15:57.072Z,62.70
2017-11-03T18:18:23.421Z,63.30
2017-11-03T18:20:49.696Z,63.40
2017-11-03T18:23:15.908Z,63.40
2017-11-03T18:25:42.337Z,63.70
2017-11-03T18:28:08.697Z,63.80
2017-11-03T18:30:34.971Z,64.10
2017-11-03T18:33:01.303Z,64.30
2017-11-03T18:35:27.644Z,64.70
2017-11-03T18:37:54.593Z,64.80
2017-11-03T18:40:20.837Z,64.70
2017-11-03T18:42:47.136Z,64.80
2017-11-03T18:45:13.392Z,64.70
2017-11-03T18:47:39.629Z,64.60
2017-11-03T18:50:06.080Z,64.80
2017-11-03T18:52:32.482Z,65.50
2017-11-03T18:54:59.229Z,65.30
2017-11-03T18:57:25.718Z,65.50
2017-11-03T18:59:52.083Z,65.30
2017-11-03T19:02:19.352Z,64.80
2017-11-03T19:04:45.701Z,65.10
2017-11-03T19:07:15.410Z,64.90
2017-11-03T19:09:41.744Z,64.90
2017-11-03T19:12:08.047Z,65.40
2017-11-03T19:14:35.938Z,65.20
2017-11-03T19:17:02.359Z,65.50
2017-11-03T19:19:29.004Z,65.60
2017-11-03T19:21:58.767Z,66.10
2017-11-03T19:24:25.731Z,65.90
2017-11-03T19:26:52.074Z,65.80
2017-11-03T19:29:18.426Z,65.10
2017-11-03T19:31:44.763Z,65.10
2017-11-03T19:34:11.056Z,65.00
2017-11-03T19:36:37.341Z,65.50
2017-11-03T19:39:03.738Z,65.90
2017-11-03T19:41:30.014Z,66.40
2017-11-03T19:43:56.466Z,66.20
2017-11-03T19:46:22.799Z,66.20
2017-11-03T19:48:49.094Z,66.60
2017-11-03T19:51:15.593Z,66.60
2017-11-03T19:53:41.849Z,66.60
2017-11-03T19:58:47.842Z,66.30
2017-11-03T20:01:14.224Z,66.00
2017-11-03T20:03:40.528Z,66.50
2017-11-03T20:06:06.940Z,66.00
2017-11-03T20:08:33.571Z,66.40
2017-11-03T20:10:59.892Z,66.50
2017-11-03T20:13:26.637Z,66.50
2017-11-03T20:15:53.929Z,66.40
2017-11-03T20:18:20.202Z,66.30
2017-11-03T20:20:46.558Z,66.00
2017-11-03T20:23:13.706Z,66.40
2017-11-03T20:25:39.942Z,66.40
2017-11-03T20:28:06.592Z,66.20
2017-11-03T20:30:32.980Z,66.10
2017-11-03T20:32:59.283Z,66.10
2017-11-03T20:35:25.931Z,65.60
2017-11-03T20:37:52.511Z,66.80
2017-11-03T20:40:18.879Z,65.80
2017-11-03T20:42:45.351Z,65.90
2017-11-03T20:45:11.747Z,65.80
2017-11-03T20:47:38.103Z,65.80
2017-11-03T20:50:04.366Z,65.90
2017-11-03T20:52:30.674Z,65.70
2017-11-03T20:54:57.061Z,65.80
2017-11-03T20:57:23.341Z,66.00
2017-11-03T20:59:49.587Z,66.20
2017-11-03T21:02:15.910Z,65.80
2017-11-03T21:04:42.141Z,66.50
2017-11-03T21:07:08.469Z,66.20
2017-11-03T21:09:34.755Z,66.80
2017-11-03T21:12:01.026Z,66.40
2017-11-03T21:14:27.999Z,66.40
2017-11-03T21:16:54.331Z,66.40
2017-11-03T21:19:21.320Z,66.70
2017-11-03T21:21:47.509Z,66.60
2017-11-03T21:24:13.909Z,66.50
2017-11-03T21:26:40.214Z,66.90
2017-11-03T21:29:06.509Z,67.00
2017-11-03T21:31:32.770Z,66.90
2017-11-03T21:33:59.869Z,66.70
2017-11-03T21:36:26.149Z,66.70
2017-11-03T21:38:52.401Z,67.00
2017-11-03T21:41:18.871Z,66.80
2017-11-03T21:43:45.079Z,66.70
2017-11-03T21:46:11.481Z,66.90
2017-11-03T21:48:37.776Z,66.80
2017-11-03T21:51:04.028Z,66.90
2017-11-03T21:53:30.279Z,67.20
2017-11-03T21:55:56.532Z,67.40
2017-11-03T21:58:22.734Z,67.40
2017-11-03T22:00:49.206Z,67.50
2017-11-03T22:03:15.480Z,67.70
2017-11-03T22:05:41.802Z,67.60
2017-11-03T22:08:08.810Z,67.80
2017-11-03T22:10:35.896Z,67.80
2017-11-03T22:13:02.239Z,67.70
2017-11-03T22:15:28.576Z,67.60
2017-11-03T22:17:54.864Z,67.90
2017-11-03T22:20:21.175Z,67.60
2017-11-03T22:22:47.574Z,67.50
2017-11-03T22:25:13.812Z,67.50
2017-11-03T22:27:40.057Z,67.10
2017-11-03T22:30:06.312Z,67.10
2017-11-03T22:32:32.611Z,67.50
2017-11-03T22:34:58.877Z,67.40
2017-11-03T22:37:25.286Z,67.40
2017-11-03T22:39:51.631Z,67.70
2017-11-03T22:42:17.997Z,67.50
2017-11-03T22:44:44.201Z,68.70
2017-11-03T22:47:10.595Z,68.10
2017-11-03T22:49:37.640Z,68.20
2017-11-03T22:52:03.865Z,68.20
2017-11-03T22:54:30.149Z,68.00
2017-11-03T22:56:57.181Z,68.60
2017-11-03T22:59:23.936Z,68.50
2017-11-03T23:01:50.187Z,68.20
2017-11-03T23:04:16.468Z,69.20
2017-11-03T23:06:42.770Z,68.20
2017-11-03T23:09:09.024Z,67.80
2017-11-03T23:11:35.293Z,67.90
2017-11-03T23:14:01.518Z,67.90
2017-11-03T23:16:27.819Z,67.90
2017-11-03T23:18:54.869Z,67.60
2017-11-03T23:21:21.149Z,67.60
2017-11-03T23:23:47.404Z,67.80
2017-11-03T23:26:13.655Z,68.10
2017-11-03T23:28:39.901Z,67.90
2017-11-03T23:31:06.942Z,67.90
2017-11-03T23:33:33.994Z,67.80
2017-11-03T23:36:00.399Z,67.80
2017-11-03T23:38:27.382Z,67.40
2017-11-03T23:40:53.622Z,67.50
2017-11-03T23:43:19.916Z,67.70
2017-11-03T23:45:46.145Z,67.90
2017-11-03T23:48:12.490Z,68.10
2017-11-03T23:50:38.866Z,68.10
2017-11-03T23:53:05.110Z,68.10
2017-11-03T23:55:32.209Z,68.30
2017-11-03T23:57:58.434Z,68.30
